Time;durP1;ratioP1;P1;durP2;ratioP2;P2;SDS_P1;SDS_P2;PMS_P1;PMS_P2;Temp;Humidity;BMP_temperature;BMP_pressure;BME280_temperature;BME280_humidity;BME280_pressure;Samples;Min_cycle;Max_cycle;Signal;HPM_P1;HPM_P2
2023/10/10 00:00:23;;;;;;;21.75;9.07;;;;;;;13.24;100.00;101106.84;5004804;28;20420;-90
2023/10/10 00:02:58;;;;;;;19.42;9.20;;;;;;;13.02;100.00;101088.19;4994286;28;20423;-90
2023/10/10 00:05:39;;;;;;;26.73;9.68;;;;;;;13.18;100.00;101108.00;5000113;28;20437;-91
2023/10/10 00:08:10;;;;;;;19.98;9.52;;;;;;;13.14;100.00;101091.34;5001001;28;20440;-91
2023/10/10 00:10:54;;;;;;;18.92;8.63;;;;;;;13.18;100.00;101094.34;5019599;28;20901;-91
2023/10/10 00:13:26;;;;;;;20.33;9.30;;;;;;;13.17;100.00;101084.50;5003168;28;20449;-90
2023/10/10 00:16:05;;;;;;;21.35;9.55;;;;;;;13.18;100.00;101091.59;5006208;28;20843;-91
2023/10/10 00:18:35;;;;;;;20.48;8.98;;;;;;;13.39;100.00;101117.66;5001699;28;20430;-91
2023/10/10 00:21:07;;;;;;;29.25;9.27;;;;;;;13.27;100.00;101104.34;4997620;28;20422;-91
2023/10/10 00:23:49;;;;;;;21.20;9.35;;;;;;;13.08;100.00;101089.78;4992143;28;20881;-91
2023/10/10 00:26:23;;;;;;;21.73;9.13;;;;;;;13.29;100.00;101108.72;4989879;28;20422;-90
2023/10/10 00:28:58;;;;;;;21.77;8.77;;;;;;;13.30;100.00;101107.59;5001196;28;20792;-91
2023/10/10 00:31:43;;;;;;;19.48;9.68;;;;;;;13.14;100.00;101080.41;4995278;28;20937;-91
2023/10/10 00:34:15;;;;;;;25.92;10.45;;;;;;;13.14;100.00;101094.09;5014149;28;20461;-90
2023/10/10 00:36:48;;;;;;;20.25;10.13;;;;;;;13.31;100.00;101096.38;5012322;28;20412;-92
2023/10/10 00:39:30;;;;;;;23.50;9.65;;;;;;;13.34;100.00;101095.00;5012159;28;20512;-90
2023/10/10 00:42:06;;;;;;;22.92;10.18;;;;;;;13.23;100.00;101070.50;5005075;28;20787;-91
2023/10/10 00:44:42;;;;;;;24.23;9.77;;;;;;;13.22;100.00;101062.59;5002089;28;20418;-90
2023/10/10 00:47:25;;;;;;;21.73;9.27;;;;;;;13.30;100.00;101059.25;5005150;28;20775;-91
2023/10/10 00:50:00;;;;;;;20.00;9.68;;;;;;;13.29;100.00;101073.19;5007338;28;20436;-91
2023/10/10 00:52:34;;;;;;;18.42;9.40;;;;;;;13.30;100.00;101052.94;5002926;28;20429;-92
2023/10/10 00:55:13;;;;;;;16.50;9.00;;;;;;;13.31;100.00;101063.56;5006041;28;20421;-92
2023/10/10 00:57:45;;;;;;;18.40;8.95;;;;;;;13.18;100.00;101054.16;4993369;28;20427;-91
2023/10/10 01:00:15;;;;;;;15.63;8.70;;;;;;;13.19;100.00;101058.50;4992449;28;20410;-89
2023/10/10 01:02:44;;;;;;;17.35;8.80;;;;;;;13.18;100.00;101045.94;5011997;28;20895;-91
2023/10/10 01:05:23;;;;;;;21.77;8.55;;;;;;;13.15;100.00;101057.47;5000163;28;20421;-90
2023/10/10 01:07:54;;;;;;;16.57;8.30;;;;;;;13.05;100.00;101047.44;4994894;28;20418;-92
2023/10/10 01:10:23;;;;;;;17.35;8.23;;;;;;;13.18;100.00;101069.75;5002391;28;20888;-91
2023/10/10 01:13:02;;;;;;;14.85;8.52;;;;;;;13.17;100.00;101065.38;5022559;28;20893;-91
2023/10/10 01:15:35;;;;;;;18.40;9.02;;;;;;;13.17;100.00;101081.75;4998047;28;20890;-91
2023/10/10 01:18:12;;;;;;;19.65;8.60;;;;;;;13.05;100.00;101082.97;5004611;28;20429;-92
2023/10/10 01:20:50;;;;;;;20.40;9.27;;;;;;;12.91;100.00;101062.84;4998136;28;20445;-90
2023/10/10 01:23:27;;;;;;;17.75;8.52;;;;;;;12.97;100.00;101069.91;5018153;28;20888;-92
2023/10/10 01:26:14;;;;;;;20.58;8.93;;;;;;;12.98;100.00;101065.25;5011080;28;20413;-92
2023/10/10 01:29:04;;;;;;;18.43;8.50;;;;;;;12.85;100.00;101080.41;5006807;28;20953;-91
2023/10/10 01:31:38;;;;;;;14.68;8.82;;;;;;;12.79;100.00;101063.25;5002294;28;20434;-91
2023/10/10 01:34:30;;;;;;;18.13;8.80;;;;;;;12.90;100.00;101086.63;5005904;28;20913;-91
2023/10/10 01:37:20;;;;;;;15.63;8.32;;;;;;;12.78;100.00;101096.31;4996761;28;20441;-92
2023/10/10 01:40:12;;;;;;;19.45;8.27;;;;;;;12.60;100.00;101071.28;4999063;28;20433;-91
2023/10/10 01:42:53;;;;;;;18.67;8.73;;;;;;;12.59;100.00;101080.56;5002069;28;20422;-90
2023/10/10 01:45:27;;;;;;;15.20;7.38;;;;;;;12.59;100.00;101067.75;5013805;28;20424;-92
2023/10/10 01:48:08;;;;;;;17.55;7.93;;;;;;;12.55;100.00;101063.13;5000438;28;20785;-92
2023/10/10 01:50:39;;;;;;;14.77;7.80;;;;;;;12.52;100.00;101067.25;5002027;28;20785;-92
2023/10/10 01:53:33;;;;;;;16.05;7.45;;;;;;;12.42;100.00;101065.41;5002614;28;20445;-92
2023/10/10 01:56:22;;;;;;;17.98;7.60;;;;;;;12.64;100.00;101080.56;5018010;28;20785;-91
2023/10/10 01:59:03;;;;;;;14.55;7.68;;;;;;;12.61;100.00;101083.03;4991104;28;20426;-91
2023/10/10 02:01:38;;;;;;;17.90;7.70;;;;;;;12.51;100.00;101084.75;5004380;28;20408;-91
2023/10/10 02:04:10;;;;;;;17.98;8.05;;;;;;;12.74;100.00;101104.25;5008956;28;20417;-91
2023/10/10 02:06:45;;;;;;;12.77;7.22;;;;;;;12.66;100.00;101100.19;5001960;28;20415;-90
2023/10/10 02:09:27;;;;;;;15.63;8.13;;;;;;;12.66;100.00;101085.72;4997462;28;20418;-90
2023/10/10 02:12:12;;;;;;;15.77;8.25;;;;;;;12.65;100.00;101108.66;4991871;28;20421;-92
2023/10/10 02:14:48;;;;;;;19.48;9.05;;;;;;;12.54;100.00;101106.00;4998500;28;20433;-91
2023/10/10 02:17:29;;;;;;;19.95;9.10;;;;;;;12.52;100.00;101071.91;4994201;28;20437;-92
2023/10/10 02:20:33;;;;;;;18.00;8.63;;;;;;;12.69;100.00;101104.25;4994830;28;20916;-93
2023/10/10 02:26:35;;;;;;;21.10;9.88;;;;;;;12.67;100.00;101103.75;5011524;28;20414;-90
2023/10/10 02:29:21;;;;;;;21.92;9.57;;;;;;;12.50;100.00;101106.88;5016140;28;20430;-92
2023/10/10 02:32:08;;;;;;;18.02;10.00;;;;;;;12.49;100.00;101099.75;5022238;28;20419;-91
2023/10/10 02:34:38;;;;;;;19.52;9.40;;;;;;;12.59;100.00;101107.88;4998456;28;20440;-91
2023/10/10 02:37:41;;;;;;;18.70;9.23;;;;;;;12.25;100.00;101084.06;5006979;28;20423;-92
2023/10/10 02:40:15;;;;;;;19.60;9.68;;;;;;;12.30;100.00;101081.28;5002028;28;20434;-91
2023/10/10 02:43:18;;;;;;;20.75;8.90;;;;;;;12.48;100.00;101084.47;5018992;28;20410;-91
2023/10/10 02:45:57;;;;;;;19.23;8.90;;;;;;;12.55;100.00;101125.91;5001130;28;20441;-91
2023/10/10 02:48:27;;;;;;;17.67;8.95;;;;;;;12.30;100.00;101094.13;5002144;28;20426;-91
2023/10/10 02:51:02;;;;;;;16.05;8.40;;;;;;;12.41;100.00;101112.09;5005732;28;20421;-91
2023/10/10 02:53:46;;;;;;;16.65;8.07;;;;;;;12.29;100.00;101104.25;5009404;28;20432;-91
2023/10/10 02:56:18;;;;;;;17.50;8.27;;;;;;;12.41;100.00;101115.66;4995024;28;20426;-91
2023/10/10 02:58:54;;;;;;;17.10;8.38;;;;;;;12.28;100.00;101097.16;4994906;28;20820;-92
2023/10/10 03:01:55;;;;;;;17.05;8.00;;;;;;;12.38;100.00;101127.09;5002558;28;20418;-91
2023/10/10 03:07:20;;;;;;;16.17;7.70;;;;;;;12.30;100.00;101114.03;5001851;28;20418;-91
2023/10/10 03:12:49;;;;;;;16.17;8.13;;;;;;;12.37;100.00;101127.38;4992072;28;20426;-92
2023/10/10 03:15:33;;;;;;;15.98;8.25;;;;;;;12.16;100.00;101111.13;4993360;28;20777;-91
2023/10/10 03:18:28;;;;;;;21.75;8.95;;;;;;;12.10;100.00;101108.69;5007974;28;21061;-91
2023/10/10 03:21:12;;;;;;;19.30;8.87;;;;;;;12.04;100.00;101103.28;4989914;28;20867;-91
2023/10/10 03:23:54;;;;;;;20.73;8.93;;;;;;;12.12;100.00;101115.50;5000089;28;20484;-91
2023/10/10 03:26:35;;;;;;;19.63;10.00;;;;;;;12.07;100.00;101094.53;4999900;28;20947;-91
2023/10/10 03:29:10;;;;;;;18.63;9.48;;;;;;;12.23;100.00;101124.47;5006361;28;20421;-91
2023/10/10 03:31:47;;;;;;;17.42;8.95;;;;;;;12.12;100.00;101106.50;5001055;28;20418;-91
2023/10/10 03:34:21;;;;;;;22.67;9.70;;;;;;;12.14;100.00;101112.47;5001285;28;20428;-91
2023/10/10 03:37:10;;;;;;;22.85;9.95;;;;;;;11.98;100.00;101090.72;5008122;28;20439;-90
2023/10/10 03:39:49;;;;;;;20.55;9.90;;;;;;;12.12;100.00;101101.06;5006317;28;20459;-91
2023/10/10 05:25:23;;;;;;;19.60;9.73;;;;;;;10.83;100.00;101150.28;5006317;28;20424;-92
2023/10/10 05:27:58;;;;;;;20.67;9.75;;;;;;;10.88;100.00;101156.53;5006061;28;20422;-90
2023/10/10 05:30:27;;;;;;;23.92;11.38;;;;;;;10.86;100.00;101153.25;5007023;28;20434;-91
2023/10/10 05:33:02;;;;;;;24.17;12.32;;;;;;;10.84;100.00;101138.28;5011757;28;20508;-93
2023/10/10 05:35:32;;;;;;;22.00;10.60;;;;;;;10.98;100.00;101146.72;5025185;28;20421;-92
2023/10/10 05:38:02;;;;;;;18.53;9.40;;;;;;;10.93;100.00;101150.28;5001587;28;20904;-92
2023/10/10 05:40:33;;;;;;;21.25;9.77;;;;;;;10.96;100.00;101140.75;5001362;28;20429;-91
2023/10/10 05:43:04;;;;;;;17.73;8.52;;;;;;;11.03;100.00;101154.91;5016387;28;20496;-91
2023/10/10 05:45:32;;;;;;;19.05;8.77;;;;;;;10.96;100.00;101147.00;5010551;28;20902;-92
2023/10/10 05:48:01;;;;;;;20.55;8.77;;;;;;;11.05;100.00;101150.81;5009626;28;21015;-92
2023/10/10 05:50:29;;;;;;;23.92;10.60;;;;;;;11.09;100.00;101150.28;4999996;28;20426;-92
2023/10/10 05:53:00;;;;;;;21.80;10.93;;;;;;;10.99;100.00;101138.31;5006415;28;20415;-92
2023/10/10 05:55:29;;;;;;;19.33;10.68;;;;;;;11.11;100.00;101151.66;5003080;28;20410;-92
2023/10/10 05:57:58;;;;;;;21.20;10.67;;;;;;;11.10;100.00;101146.47;5001753;28;20437;-92
2023/10/10 06:00:32;;;;;;;22.35;10.57;;;;;;;11.23;100.00;101157.63;5007674;28;20789;-91
2023/10/10 06:03:01;;;;;;;19.20;9.57;;;;;;;11.23;100.00;101151.38;5023390;28;20426;-91
2023/10/10 06:05:31;;;;;;;19.83;10.43;;;;;;;11.15;100.00;101150.00;4999196;28;20437;-91
2023/10/10 06:08:01;;;;;;;21.25;10.73;;;;;;;11.29;100.00;101161.19;4995244;28;20437;-91
2023/10/10 06:10:34;;;;;;;23.27;11.68;;;;;;;11.26;100.00;101156.28;4996974;28;20948;-91
2023/10/10 06:13:06;;;;;;;20.13;10.20;;;;;;;11.24;100.00;101153.00;5002591;28;20494;-91
2023/10/10 06:15:37;;;;;;;20.98;11.20;;;;;;;11.31;100.00;101175.38;4992770;28;20421;-91
2023/10/10 06:18:18;;;;;;;19.92;9.90;;;;;;;11.23;100.00;101154.91;5001556;28;20425;-91
2023/10/10 06:20:47;;;;;;;22.45;10.60;;;;;;;11.36;100.00;101186.25;5001405;28;20423;-90
2023/10/10 06:23:16;;;;;;;21.25;10.60;;;;;;;11.29;100.00;101163.09;4994203;28;20434;-93
2023/10/10 06:25:47;;;;;;;19.65;10.07;;;;;;;11.36;100.00;101177.25;4998246;28;21030;-91
2023/10/10 06:28:25;;;;;;;21.98;10.52;;;;;;;11.35;100.00;101173.72;4994609;28;20422;-92
2023/10/10 06:34:22;;;;;;;21.30;10.57;;;;;;;11.51;100.00;101188.16;4934938;29;20805;-91
2023/10/10 06:36:52;;;;;;;21.75;10.98;;;;;;;11.46;100.00;101177.28;4939790;29;20438;-91
2023/10/10 06:39:21;;;;;;;21.55;10.18;;;;;;;11.47;100.00;101180.81;4981553;28;20769;-92
2023/10/10 06:41:59;;;;;;;21.67;11.37;;;;;;;11.51;100.00;101171.00;5007741;28;20441;-89
2023/10/10 06:44:34;;;;;;;21.35;11.27;;;;;;;11.56;100.00;101179.97;5008195;28;20914;-91
2023/10/10 06:47:21;;;;;;;19.42;10.57;;;;;;;11.35;100.00;101151.94;5001004;28;20785;-92
2023/10/10 06:49:55;;;;;;;20.38;10.25;;;;;;;11.56;100.00;101174.53;4995863;28;20424;-92
2023/10/10 06:52:27;;;;;;;19.25;10.82;;;;;;;11.48;100.00;101156.00;4995547;28;20785;-89
2023/10/10 06:54:56;;;;;;;18.55;10.10;;;;;;;11.61;100.00;101170.16;4986428;28;20438;-91
2023/10/10 06:57:38;;;;;;;21.05;11.00;;;;;;;11.69;100.00;101169.59;4990524;28;20418;-88
2023/10/10 07:03:18;;;;;;;19.38;10.50;;;;;;;11.67;100.00;101158.13;4999527;28;20439;-88
2023/10/10 07:06:14;;;;;;;20.13;11.15;;;;;;;11.67;100.00;101155.41;5000346;28;20820;-91
2023/10/10 07:09:14;;;;;;;20.88;11.32;;;;;;;11.70;100.00;101160.34;4990829;28;20443;-90
2023/10/10 07:11:54;;;;;;;19.48;10.45;;;;;;;11.69;100.00;101164.97;4993478;28;20455;-90
2023/10/10 07:14:43;;;;;;;20.17;11.13;;;;;;;11.82;100.00;101182.69;4985550;28;20802;-90
2023/10/10 07:17:28;;;;;;;19.60;10.90;;;;;;;11.88;100.00;101197.13;4989689;28;20439;-91
2023/10/10 07:23:12;;;;;;;21.88;11.10;;;;;;;11.76;100.00;101159.22;4988966;28;20439;-91
2023/10/10 07:25:45;;;;;;;18.55;10.18;;;;;;;11.98;100.00;101190.84;4942112;28;20825;-89
2023/10/10 07:28:17;;;;;;;20.05;10.25;;;;;;;11.97;100.00;101183.75;4981809;28;20428;-89
2023/10/10 07:30:50;;;;;;;20.17;10.38;;;;;;;11.78;100.00;101165.22;4965140;28;20435;-90
2023/10/10 07:33:54;;;;;;;21.57;10.87;;;;;;;11.83;100.00;101157.03;4971660;28;20485;-89
2023/10/10 07:36:50;;;;;;;20.42;9.98;;;;;;;11.92;100.00;101165.47;4901050;28;20429;-91
2023/10/10 07:39:35;;;;;;;23.98;11.13;;;;;;;11.85;100.00;101162.22;4890660;28;20437;-89
2023/10/10 07:42:27;;;;;;;19.75;10.60;;;;;;;11.86;100.00;101161.94;4994117;28;20432;-90
2023/10/10 07:44:58;;;;;;;19.75;10.27;;;;;;;11.93;100.00;101160.81;4973047;28;20448;-88
2023/10/10 07:47:32;;;;;;;22.73;10.73;;;;;;;12.05;100.00;101173.06;4973785;28;21329;-90
2023/10/10 07:50:08;;;;;;;21.98;10.77;;;;;;;12.06;100.00;101169.25;4969435;28;21248;-89
2023/10/10 07:52:45;;;;;;;22.35;10.77;;;;;;;12.07;100.00;101168.19;4975878;28;20441;-90
2023/10/10 07:55:34;;;;;;;23.65;10.52;;;;;;;12.25;100.00;101185.84;4977798;28;20436;-90
2023/10/10 07:58:06;;;;;;;23.42;10.70;;;;;;;12.20;100.00;101169.50;4978731;28;20427;-90
2023/10/10 08:00:40;;;;;;;20.30;10.47;;;;;;;12.31;100.00;101181.19;4980156;28;20805;-90
2023/10/10 08:03:31;;;;;;;22.35;10.90;;;;;;;12.42;100.00;101187.41;4977704;28;20448;-89
2023/10/10 08:27:45;;;;;;;28.60;14.35;;;;;;;12.33;100.00;101145.41;4964947;28;21460;-89
2023/10/10 08:30:25;;;;;;;29.77;12.93;;;;;;;12.47;100.00;101164.72;4977625;28;20445;-88
2023/10/10 08:33:06;;;;;;;26.20;13.18;;;;;;;12.49;100.00;101173.47;4970464;28;20436;-90
2023/10/10 08:35:38;;;;;;;29.05;12.90;;;;;;;12.55;100.00;101180.53;4982813;28;20437;-89
2023/10/10 08:38:07;;;;;;;29.15;14.55;;;;;;;12.55;100.00;101177.78;5003391;28;20425;-89
2023/10/10 08:40:40;;;;;;;35.90;16.77;;;;;;;12.59;100.00;101190.63;4999163;28;20428;-90
2023/10/10 08:43:10;;;;;;;41.33;17.05;;;;;;;12.42;100.00;101160.13;4989557;28;20423;-89
2023/10/10 08:45:43;;;;;;;35.63;15.52;;;;;;;12.61;100.00;101171.22;4984527;28;21291;-90
2023/10/10 08:48:26;;;;;;;37.17;14.60;;;;;;;12.62;100.00;101163.84;4989061;28;20431;-89
2023/10/10 08:51:03;;;;;;;40.45;16.55;;;;;;;12.70;100.00;101176.91;4980120;28;20427;-89
2023/10/10 08:53:38;;;;;;;39.20;15.07;;;;;;;12.61;100.00;101178.59;4984824;28;20429;-89
2023/10/10 08:56:08;;;;;;;41.78;14.95;;;;;;;12.66;100.00;101173.91;4985451;28;20987;-89
2023/10/10 08:58:41;;;;;;;38.22;15.45;;;;;;;12.65;100.00;101180.50;4993413;28;20435;-88
2023/10/10 09:01:15;;;;;;;38.88;15.43;;;;;;;12.75;100.00;101174.16;4979294;28;20439;-89
2023/10/10 09:03:57;;;;;;;39.60;14.55;;;;;;;12.65;100.00;101157.81;4980668;28;20415;-89
2023/10/10 09:06:38;;;;;;;37.03;15.50;;;;;;;12.63;100.00;101155.38;4983087;28;20429;-89
2023/10/10 09:09:32;;;;;;;40.60;14.75;;;;;;;12.81;100.00;101172.19;4984562;28;20431;-89
2023/10/10 09:12:03;;;;;;;38.77;15.20;;;;;;;12.69;100.00;101167.06;4977627;28;20430;-88
2023/10/10 09:14:50;;;;;;;39.03;14.98;;;;;;;12.78;100.00;101172.78;4974387;28;20437;-89
2023/10/10 09:17:32;;;;;;;41.23;14.33;;;;;;;12.71;100.00;101165.69;4988656;28;20457;-89
2023/10/10 09:20:17;;;;;;;42.23;14.80;;;;;;;12.90;100.00;101170.50;4989130;28;20439;-89
2023/10/10 09:22:51;;;;;;;39.17;15.27;;;;;;;12.87;100.00;101163.69;4982421;28;20442;-88
2023/10/10 09:25:31;;;;;;;41.80;15.52;;;;;;;12.79;100.00;101168.91;4980768;28;20437;-90
2023/10/10 09:28:03;;;;;;;40.97;15.03;;;;;;;12.88;100.00;101178.97;4983661;28;21984;-88
2023/10/10 09:30:34;;;;;;;41.10;15.40;;;;;;;12.67;100.00;101150.97;4989170;28;20437;-88
2023/10/10 09:33:22;;;;;;;40.88;14.93;;;;;;;12.76;100.00;101162.13;4974838;28;20438;-90
2023/10/10 09:35:58;;;;;;;40.70;15.30;;;;;;;12.84;100.00;101153.34;4987201;28;20432;-88
2023/10/10 09:38:34;;;;;;;39.83;15.65;;;;;;;12.85;100.00;101165.06;4977139;28;20808;-88
2023/10/10 09:41:14;;;;;;;41.65;15.75;;;;;;;12.82;100.00;101146.53;4990923;28;20436;-88
2023/10/10 09:44:01;;;;;;;37.55;14.50;;;;;;;12.87;100.00;101154.66;4980094;28;20439;-89
2023/10/10 09:46:58;;;;;;;35.37;14.00;;;;;;;12.93;100.00;101159.00;4995396;28;20425;-88
2023/10/10 09:49:40;;;;;;;32.08;13.30;;;;;;;13.00;100.00;101159.50;5001657;28;20437;-88
2023/10/10 09:55:07;;;;;;;37.33;13.93;;;;;;;13.19;100.00;101177.97;4984819;28;20432;-91
2023/10/10 09:57:42;;;;;;;33.63;13.88;;;;;;;13.10;100.00;101169.53;4981820;28;20425;-88
2023/10/10 10:00:13;;;;;;;38.40;13.63;;;;;;;13.17;100.00;101171.94;4984089;28;20421;-86
2023/10/10 10:02:43;;;;;;;40.83;13.65;;;;;;;13.34;100.00;101168.78;5005409;28;20434;-89
2023/10/10 10:05:18;;;;;;;42.70;14.23;;;;;;;13.39;100.00;101166.88;4975080;28;20439;-88
2023/10/10 10:08:00;;;;;;;34.88;13.32;;;;;;;13.41;100.00;101155.66;4977128;28;20431;-89
2023/10/10 10:10:48;;;;;;;40.30;13.55;;;;;;;13.47;100.00;101149.03;4980320;28;20429;-91
2023/10/10 10:13:37;;;;;;;33.42;13.32;;;;;;;13.42;100.00;101143.59;4990245;28;20423;-87
2023/10/10 10:16:25;;;;;;;32.67;13.10;;;;;;;13.58;100.00;101155.22;4976954;28;20453;-88
2023/10/10 10:19:10;;;;;;;33.57;13.20;;;;;;;13.63;100.00;101146.16;4989126;28;20444;-91
2023/10/10 10:21:53;;;;;;;37.10;12.77;;;;;;;13.74;100.00;101144.94;4976334;28;20445;-89
2023/10/10 10:24:32;;;;;;;38.25;13.57;;;;;;;13.79;100.00;101153.09;4953564;28;20799;-88
2023/10/10 10:27:22;;;;;;;37.42;13.13;;;;;;;13.81;100.00;101145.41;4981383;28;20450;-88
2023/10/10 10:29:55;;;;;;;34.67;12.07;;;;;;;13.77;100.00;101145.19;4976166;28;20679;-87
2023/10/10 10:32:25;;;;;;;30.83;12.52;;;;;;;13.87;100.00;101152.44;4976761;28;20427;-88
2023/10/10 10:35:01;;;;;;;28.67;12.00;;;;;;;13.83;100.00;101136.91;4991253;28;20958;-89
2023/10/10 10:37:31;;;;;;;29.75;11.80;;;;;;;13.92;100.00;101136.00;4982760;28;20428;-88
2023/10/10 10:42:51;;;;;;;26.95;11.23;;;;;;;14.22;100.00;101155.06;4980150;28;20438;-88
2023/10/10 10:45:33;;;;;;;26.45;11.07;;;;;;;14.33;100.00;101139.31;4979126;28;20905;-88
2023/10/10 10:48:08;;;;;;;25.02;10.75;;;;;;;14.35;100.00;101134.34;4977338;28;20430;-88
2023/10/10 10:50:45;;;;;;;25.52;10.82;;;;;;;14.38;100.00;101131.84;4966740;28;20432;-89
2023/10/10 10:53:30;;;;;;;21.48;9.82;;;;;;;14.33;100.00;101118.22;4995801;28;20428;-87
2023/10/10 10:59:13;;;;;;;20.20;9.23;;;;;;;14.48;100.00;101098.03;4929561;28;20439;-90
2023/10/10 11:01:51;;;;;;;22.00;9.35;;;;;;;14.73;100.00;101102.34;4927001;28;20811;-88
2023/10/10 11:04:43;;;;;;;17.30;8.05;;;;;;;14.88;100.00;101108.72;4955620;28;20827;-86
2023/10/10 11:07:16;;;;;;;17.92;7.45;;;;;;;14.95;100.00;101109.94;4973964;28;20439;-88
2023/10/10 11:09:53;;;;;;;14.67;7.43;;;;;;;14.89;100.00;101077.47;4972886;28;20438;-87
2023/10/10 11:12:31;;;;;;;15.20;7.90;;;;;;;15.12;100.00;101097.63;4997000;28;20483;-90
2023/10/10 11:15:06;;;;;;;13.80;7.13;;;;;;;15.14;100.00;101093.47;4984631;28;20444;-87
2023/10/10 11:17:39;;;;;;;12.55;6.78;;;;;;;15.19;100.00;101098.06;4979414;28;20424;-89
2023/10/10 11:22:56;;;;;;;11.15;6.60;;;;;;;15.34;100.00;101076.97;4989835;28;20445;-89
2023/10/10 11:25:41;;;;;;;14.23;6.60;;;;;;;15.20;100.00;101074.19;4962815;28;20879;-87
2023/10/10 11:28:21;;;;;;;10.93;6.63;;;;;;;15.44;100.00;101080.34;4975619;28;20453;-87
2023/10/10 11:30:58;;;;;;;12.77;6.10;;;;;;;15.44;100.00;101082.28;4983606;28;20435;-88
2023/10/10 11:33:48;;;;;;;10.20;5.80;;;;;;;15.54;100.00;101073.84;4981674;28;20427;-87
2023/10/10 11:36:29;;;;;;;12.43;5.80;;;;;;;15.52;100.00;101067.81;4976366;28;20434;-89
2023/10/10 11:39:15;;;;;;;9.75;5.72;;;;;;;15.58;100.00;101072.09;4976367;28;20458;-88
2023/10/10 11:41:50;;;;;;;12.82;5.47;;;;;;;15.66;100.00;101070.59;4974207;28;20435;-86
2023/10/10 11:44:23;;;;;;;9.95;4.93;;;;;;;15.48;100.00;101059.41;4973593;28;20427;-87
2023/10/10 11:47:02;;;;;;;9.47;4.60;;;;;;;15.22;100.00;101031.66;4978633;28;20419;-87
2023/10/10 11:49:32;;;;;;;8.27;4.40;;;;;;;15.34;100.00;101031.13;4980895;28;20805;-87
2023/10/10 11:52:01;;;;;;;11.07;4.70;;;;;;;15.45;100.00;101021.63;4974091;28;20873;-89
2023/10/10 11:54:29;;;;;;;9.23;3.67;;;;;;;15.57;100.00;101034.81;4977406;28;20428;-88
2023/10/10 11:57:01;;;;;;;7.00;3.40;;;;;;;15.40;100.00;101016.22;4972253;28;20768;-88
2023/10/10 11:59:32;;;;;;;9.35;3.85;;;;;;;15.49;100.00;101032.78;4976284;28;21913;-88
2023/10/10 12:02:13;;;;;;;6.90;3.67;;;;;;;15.56;100.00;101021.41;4976531;28;20438;-89
2023/10/10 12:04:44;;;;;;;9.93;4.40;;;;;;;15.49;100.00;101021.81;4982850;28;21016;-87
2023/10/10 12:07:14;;;;;;;8.93;4.60;;;;;;;15.74;100.00;101019.66;4976061;28;20443;-87
2023/10/10 12:09:48;;;;;;;10.63;5.03;;;;;;;15.64;100.00;101009.72;4996538;28;20905;-87
2023/10/10 12:12:18;;;;;;;10.88;5.93;;;;;;;15.45;100.00;100985.97;4977454;28;20429;-86
2023/10/10 12:14:50;;;;;;;11.32;5.20;;;;;;;15.46;100.00;100998.53;4993314;28;20960;-88
2023/10/10 12:17:20;;;;;;;9.20;4.47;;;;;;;15.52;100.00;100990.22;4976684;28;21514;-88
2023/10/10 12:19:49;;;;;;;9.02;5.05;;;;;;;15.50;100.00;100982.31;4976466;28;20952;-88
2023/10/10 12:22:22;;;;;;;11.18;5.13;;;;;;;15.53;100.00;100986.38;4983946;28;20437;-88
2023/10/10 12:25:04;;;;;;;12.60;5.03;;;;;;;15.61;100.00;100959.03;4952437;28;20959;-88
2023/10/10 12:27:37;;;;;;;10.13;4.60;;;;;;;15.48;100.00;100951.63;4978944;28;20444;-87
2023/10/10 12:30:07;;;;;;;11.27;4.82;;;;;;;15.67;100.00;100967.94;4999918;28;20854;-88
2023/10/10 12:32:36;;;;;;;11.50;4.88;;;;;;;15.72;100.00;100965.09;4976502;28;20434;-89
2023/10/10 12:35:10;;;;;;;9.52;4.68;;;;;;;15.66;100.00;100947.13;4990029;28;20667;-88
2023/10/10 12:37:39;;;;;;;12.02;4.40;;;;;;;15.90;100.00;100955.13;4977282;28;20440;-87
2023/10/10 12:40:32;;;;;;;6.78;3.58;;;;;;;15.70;100.00;100958.28;4978210;28;20724;-87
2023/10/10 12:43:38;;;;;;;7.82;3.80;;;;;;;15.72;100.00;100964.31;4980683;28;20435;-89
2023/10/10 12:46:09;;;;;;;7.88;3.88;;;;;;;15.86;100.00;100978.03;4985266;28;20525;-86
2023/10/10 12:48:40;;;;;;;6.50;3.65;;;;;;;15.89;100.00;100977.41;4975839;28;20416;-87
2023/10/10 12:51:10;;;;;;;8.10;3.40;;;;;;;15.98;100.00;100959.88;4983000;28;20427;-87
2023/10/10 12:53:42;;;;;;;6.35;3.17;;;;;;;16.08;100.00;100963.53;4979458;28;20436;-87
2023/10/10 12:56:54;;;;;;;7.60;3.00;;;;;;;15.84;100.00;100950.88;4978759;28;20425;-87
2023/10/10 12:59:28;;;;;;;9.23;2.90;;;;;;;16.08;100.00;100950.59;4982080;28;20447;-86
2023/10/10 13:02:00;;;;;;;6.57;2.97;;;;;;;15.95;100.00;100951.44;4984464;28;20447;-88
2023/10/10 13:04:31;;;;;;;6.00;2.65;;;;;;;16.09;100.00;100965.97;4994923;28;20433;-88
2023/10/10 13:07:03;;;;;;;6.45;3.00;;;;;;;15.94;100.00;100960.81;4985952;28;20423;-87
2023/10/10 13:09:42;;;;;;;8.82;3.03;;;;;;;15.98;100.00;100972.81;4984996;28;20442;-88
2023/10/10 13:12:18;;;;;;;9.68;3.75;;;;;;;15.97;100.00;100954.72;4979988;28;20428;-88
2023/10/10 13:15:17;;;;;;;9.38;3.35;;;;;;;16.17;100.00;100972.63;4985827;28;20419;-88
2023/10/10 13:18:11;;;;;;;7.82;3.20;;;;;;;16.27;100.00;100968.84;4983652;28;20421;-88
2023/10/10 13:20:41;;;;;;;7.25;3.05;;;;;;;16.21;100.00;100976.38;4984621;28;21002;-88
2023/10/10 13:23:10;;;;;;;5.93;3.13;;;;;;;16.24;100.00;100978.53;4982691;28;20998;-87
2023/10/10 13:25:39;;;;;;;8.73;3.30;;;;;;;16.24;100.00;100966.72;4957497;28;20425;-87
2023/10/10 13:28:09;;;;;;;7.18;3.13;;;;;;;16.32;100.00;100969.53;4976395;28;20436;-86
2023/10/10 13:30:42;;;;;;;7.28;3.20;;;;;;;16.25;100.00;100960.91;4975956;28;20427;-89
2023/10/10 13:33:15;;;;;;;8.45;3.25;;;;;;;16.22;100.00;100952.50;4978475;28;20485;-88
2023/10/10 13:35:45;;;;;;;5.43;3.27;;;;;;;16.23;100.00;100965.91;4972436;28;20733;-87
2023/10/10 13:38:13;;;;;;;9.17;3.27;;;;;;;16.31;100.00;100967.91;4974838;28;20423;-88
2023/10/10 13:40:45;;;;;;;5.50;3.08;;;;;;;16.32;100.00;100977.78;4977564;28;21047;-88
2023/10/10 13:43:17;;;;;;;7.07;3.13;;;;;;;16.39;100.00;100971.03;4974916;28;20419;-86
2023/10/10 13:45:51;;;;;;;8.27;3.30;;;;;;;16.24;100.00;100956.56;4977678;28;20437;-88
2023/10/10 13:48:23;;;;;;;5.63;3.20;;;;;;;16.29;100.00;100953.66;4997024;28;22670;-89
2023/10/10 13:50:54;;;;;;;7.55;3.25;;;;;;;16.28;100.00;100964.97;4974595;28;20901;-87
2023/10/10 13:53:23;;;;;;;6.50;3.30;;;;;;;16.17;100.00;100941.63;4980208;28;20431;-87
2023/10/10 13:55:52;;;;;;;7.35;3.20;;;;;;;16.23;100.00;100941.19;4972199;28;20434;-86
2023/10/10 13:58:20;;;;;;;8.85;3.28;;;;;;;16.03;100.00;100936.97;4974856;28;20965;-88
2023/10/10 14:01:13;;;;;;;8.93;3.40;;;;;;;16.01;100.00;100927.47;4985911;28;20445;-88
2023/10/10 14:03:46;;;;;;;9.48;3.65;;;;;;;15.98;100.00;100926.16;4976865;28;20436;-88
2023/10/10 14:06:22;;;;;;;8.75;3.47;;;;;;;16.03;100.00;100923.25;4982668;28;20972;-88
2023/10/10 14:08:51;;;;;;;7.35;4.00;;;;;;;15.85;100.00;100911.31;4979176;28;20948;-88
2023/10/10 14:11:22;;;;;;;8.68;3.75;;;;;;;15.87;100.00;100892.63;4980982;28;20473;-87
2023/10/10 14:13:55;;;;;;;7.35;3.60;;;;;;;15.81;100.00;100893.84;4992170;28;20933;-90
2023/10/10 14:16:25;;;;;;;9.07;4.00;;;;;;;15.81;100.00;100894.69;4980459;28;20428;-90
2023/10/10 14:18:54;;;;;;;9.40;3.90;;;;;;;15.83;100.00;100897.13;4977292;28;20446;-90
2023/10/10 14:21:24;;;;;;;6.97;3.92;;;;;;;15.73;100.00;100878.09;4975634;28;20432;-87
2023/10/10 14:24:03;;;;;;;9.15;3.97;;;;;;;15.92;100.00;100891.69;4975548;28;20445;-88
2023/10/10 14:26:35;;;;;;;9.38;4.03;;;;;;;16.04;100.00;100882.91;4953032;28;20443;-87